Time;durP1;ratioP1;P1;durP2;ratioP2;P2;SDS_P1;SDS_P2;PMS_P1;PMS_P2;Temp;Humidity;BMP_temperature;BMP_pressure;BME280_temperature;BME280_humidity;BME280_pressure;Samples;Min_cycle;Max_cycle;Signal;HPM_P1;HPM_P2
2021/05/02 00:01:12;;;;;;;;;;;;;;;10.49;100.00;98801.97;1734132;81;20186;-71
2021/05/02 00:03:41;;;;;;;;;;;;;;;10.48;100.00;98801.69;1734057;82;20150;-71
2021/05/02 00:06:09;;;;;;;;;;;;;;;10.46;100.00;98796.61;1734138;82;20230;-71
2021/05/02 00:08:38;;;;;;;;;;;;;;;10.46;100.00;98797.13;1734089;82;21408;-71
2021/05/02 00:11:07;;;;;;;;;;;;;;;10.42;100.00;98802.24;1734099;81;20162;-71
2021/05/02 00:13:37;;;;;;;;;;;;;;;10.45;100.00;98803.04;1735495;81;20484;-71
2021/05/02 00:16:05;;;;;;;;;;;;;;;10.46;100.00;98801.16;1736386;82;20500;-72
2021/05/02 00:18:34;;;;;;;;;;;;;;;10.44;100.00;98800.09;1736640;82;20320;-71
2021/05/02 00:21:01;;;;;;;;;;;;;;;10.43;100.00;98806.52;1736480;82;21440;-71
2021/05/02 00:23:29;;;;;;;;;;;;;;;10.44;100.00;98802.78;1736408;82;20114;-72
2021/05/02 00:25:57;;;;;;;;;;;;;;;10.47;100.00;98800.09;1735235;81;20221;-72
2021/05/02 00:28:25;;;;;;;;;;;;;;;10.46;100.00;98797.13;1736311;81;20158;-72
2021/05/02 00:30:52;;;;;;;;;;;;;;;10.46;100.00;98799.81;1736492;82;20285;-71
2021/05/02 00:33:20;;;;;;;;;;;;;;;10.44;100.00;98798.76;1736604;82;22694;-72
2021/05/02 00:35:48;;;;;;;;;;;;;;;10.41;100.00;98790.43;1736478;81;20670;-71
2021/05/02 00:38:18;;;;;;;;;;;;;;;10.38;100.00;98789.64;1736496;82;20241;-72
2021/05/02 00:40:51;;;;;;;;;;;;;;;10.35;100.00;98782.94;1736557;81;20521;-72
2021/05/02 00:43:26;;;;;;;;;;;;;;;10.34;100.00;98784.02;1736458;82;20218;-72
2021/05/02 00:46:17;;;;;;;;;;;;;;;10.30;100.00;98776.24;1736416;81;21486;-72
2021/05/02 00:48:54;;;;;;;;;;;;;;;10.25;100.00;98782.93;1736559;82;20630;-70
2021/05/02 00:51:23;;;;;;;;;;;;;;;10.18;100.00;98776.48;1736537;82;20135;-71
2021/05/02 00:53:58;;;;;;;;;;;;;;;10.13;100.00;98777.84;1736458;82;20142;-71
2021/05/02 00:56:36;;;;;;;;;;;;;;;10.13;100.00;98767.66;1736360;82;20229;-70
2021/05/02 00:59:09;;;;;;;;;;;;;;;10.13;100.00;98760.95;1736459;82;21370;-71
2021/05/02 01:01:45;;;;;;;;;;;;;;;10.08;100.00;98765.23;1736362;82;20509;-71
2021/05/02 01:04:18;;;;;;;;;;;;;;;10.08;100.00;98763.09;1736428;82;20552;-71
2021/05/02 01:06:45;;;;;;;;;;;;;;;10.08;100.00;98769.26;1736448;82;20233;-70
2021/05/02 01:09:16;;;;;;;;;;;;;;;10.07;100.00;98764.19;1735428;81;20541;-70
2021/05/02 01:11:46;;;;;;;;;;;;;;;10.08;100.00;98757.19;1736471;82;21179;-70
2021/05/02 01:14:20;;;;;;;;;;;;;;;10.08;100.00;98753.71;1736285;82;20582;-69
2021/05/02 01:16:47;;;;;;;;;;;;;;;10.11;100.00;98754.50;1736479;81;20485;-69
2021/05/02 01:19:15;;;;;;;;;;;;;;;10.09;100.00;98756.14;1736442;81;20143;-70
2021/05/02 01:21:42;;;;;;;;;;;;;;;10.08;100.00;98750.48;1736520;82;20198;-70
2021/05/02 01:24:11;;;;;;;;;;;;;;;10.10;100.00;98750.23;1735208;81;21346;-70
2021/05/02 01:26:41;;;;;;;;;;;;;;;10.14;100.00;98742.44;1736304;81;20150;-70
2021/05/02 01:29:10;;;;;;;;;;;;;;;10.17;100.00;98748.08;1736501;82;20496;-70
2021/05/02 01:31:40;;;;;;;;;;;;;;;10.18;100.00;98751.56;1736437;81;20154;-70
2021/05/02 01:34:07;;;;;;;;;;;;;;;10.21;100.00;98752.34;1736431;82;20158;-70
2021/05/02 01:36:36;;;;;;;;;;;;;;;10.24;100.00;98743.75;1736489;82;21359;-71
2021/05/02 01:39:06;;;;;;;;;;;;;;;10.24;100.00;98731.69;1736380;82;20146;-71
2021/05/02 01:41:35;;;;;;;;;;;;;;;10.28;100.00;98724.74;1738044;81;20528;-71
2021/05/02 01:44:04;;;;;;;;;;;;;;;10.30;100.00;98720.72;1736388;82;20213;-70
2021/05/02 01:46:41;;;;;;;;;;;;;;;10.32;100.00;98719.11;1736557;81;20225;-71
2021/05/02 01:49:15;;;;;;;;;;;;;;;10.37;100.00;98727.69;1736491;82;21331;-70
2021/05/02 01:51:43;;;;;;;;;;;;;;;10.36;100.00;98726.86;1736315;82;20566;-71
2021/05/02 01:54:13;;;;;;;;;;;;;;;10.34;100.00;98729.04;1736526;82;20249;-70
2021/05/02 01:56:40;;;;;;;;;;;;;;;10.30;100.00;98727.97;1736353;82;20154;-71
2021/05/02 01:59:08;;;;;;;;;;;;;;;10.27;100.00;98725.26;1713899;82;20213;-71
2021/05/02 02:01:36;;;;;;;;;;;;;;;10.26;100.00;98714.79;1736421;82;21804;-71
2021/05/02 02:04:09;;;;;;;;;;;;;;;10.27;100.00;98702.46;1736358;82;20161;-71
2021/05/02 02:06:38;;;;;;;;;;;;;;;10.25;100.00;98701.92;1736434;82;20154;-71
2021/05/02 02:09:08;;;;;;;;;;;;;;;10.25;100.00;98705.95;1734946;81;20134;-71
2021/05/02 02:11:37;;;;;;;;;;;;;;;10.24;100.00;98703.02;1736406;82;20485;-72
2021/05/02 02:14:05;;;;;;;;;;;;;;;10.25;100.00;98703.81;1734806;82;21363;-71
2021/05/02 02:16:33;;;;;;;;;;;;;;;10.27;100.00;98701.66;1733980;82;20269;-71
2021/05/02 02:19:03;;;;;;;;;;;;;;;10.26;100.00;98702.20;1733997;82;20304;-71
2021/05/02 02:21:31;;;;;;;;;;;;;;;10.26;100.00;98696.84;1734140;82;20223;-71
2021/05/02 02:23:59;;;;;;;;;;;;;;;10.27;100.00;98694.95;1734018;82;20147;-71
2021/05/02 02:26:36;;;;;;;;;;;;;;;10.25;100.00;98689.86;1734046;82;21363;-71
2021/05/02 02:29:04;;;;;;;;;;;;;;;10.27;100.00;98693.07;1733935;82;20182;-71
2021/05/02 02:31:35;;;;;;;;;;;;;;;10.26;100.00;98700.04;1734439;81;20159;-71
2021/05/02 02:34:06;;;;;;;;;;;;;;;10.26;100.00;98698.70;1734024;81;20278;-71
2021/05/02 02:36:33;;;;;;;;;;;;;;;10.26;100.00;98702.20;1733993;79;20258;-70
2021/05/02 02:39:01;;;;;;;;;;;;;;;10.28;100.00;98705.42;1734053;82;21190;-71
2021/05/02 02:41:29;;;;;;;;;;;;;;;10.29;100.00;98703.57;1733985;82;20154;-71
2021/05/02 02:43:57;;;;;;;;;;;;;;;10.26;100.00;98708.09;1734556;81;20146;-71
2021/05/02 02:46:25;;;;;;;;;;;;;;;10.22;100.00;98704.36;1734015;82;20909;-71
2021/05/02 02:48:56;;;;;;;;;;;;;;;10.20;100.00;98694.44;1733972;82;20592;-71
2021/05/02 02:51:27;;;;;;;;;;;;;;;10.19;100.00;98699.00;1734040;82;21359;-71
2021/05/02 02:53:57;;;;;;;;;;;;;;;10.18;100.00;98697.38;1734090;82;20620;-71
2021/05/02 02:56:25;;;;;;;;;;;;;;;10.18;100.00;98707.31;1711844;82;20222;-72
2021/05/02 02:59:15;;;;;;;;;;;;;;;10.18;100.00;98715.36;1733917;82;20345;-71
2021/05/02 03:01:46;;;;;;;;;;;;;;;10.16;100.00;98712.93;1733997;82;20206;-71
2021/05/02 03:04:17;;;;;;;;;;;;;;;10.15;100.00;98713.22;1734032;82;21636;-71
2021/05/02 03:06:45;;;;;;;;;;;;;;;10.11;100.00;98709.47;1734062;82;20523;-71
2021/05/02 03:09:16;;;;;;;;;;;;;;;10.05;100.00;98716.73;1734059;82;20131;-71
2021/05/02 03:11:43;;;;;;;;;;;;;;;9.98;100.00;98712.97;1734079;82;20197;-71
2021/05/02 03:14:14;;;;;;;;;;;;;;;9.96;100.00;98711.09;1734065;81;20507;-71
2021/05/02 03:16:41;;;;;;;;;;;;;;;9.94;100.00;98713.23;1734151;81;21287;-70
2021/05/02 03:19:27;;;;;;;;;;;;;;;9.95;100.00;98716.20;1712048;82;20162;-71
2021/05/02 03:22:16;;;;;;;;;;;;;;;9.97;100.00;98706.02;1734192;82;20138;-71
2021/05/02 03:24:45;;;;;;;;;;;;;;;10.00;100.00;98696.08;1734145;82;20254;-71
2021/05/02 03:27:28;;;;;;;;;;;;;;;10.04;100.00;98686.44;1734068;82;20174;-72
2021/05/02 03:29:56;;;;;;;;;;;;;;;10.08;100.00;98680.77;1734160;82;21365;-71
2021/05/02 03:32:26;;;;;;;;;;;;;;;10.17;100.00;98685.06;1734226;82;20500;-71
2021/05/02 03:34:55;;;;;;;;;;;;;;;10.23;100.00;98680.48;1734263;82;20245;-71
2021/05/02 03:37:25;;;;;;;;;;;;;;;10.29;100.00;98677.55;1734067;82;20907;-71
2021/05/02 03:39:54;;;;;;;;;;;;;;;10.38;100.00;98677.77;1734219;81;20131;-71
2021/05/02 03:42:22;;;;;;;;;;;;;;;10.44;100.00;98680.72;1734151;81;21382;-71
2021/05/02 03:44:50;;;;;;;;;;;;;;;10.49;100.00;98676.67;1734082;81;20237;-71
2021/05/02 03:47:19;;;;;;;;;;;;;;;10.56;100.00;98677.72;1734175;82;20492;-69
2021/05/02 03:49:46;;;;;;;;;;;;;;;10.60;100.00;98681.45;1734134;82;20230;-71
2021/05/02 03:52:14;;;;;;;;;;;;;;;10.65;100.00;98678.73;1734155;82;20119;-71
2021/05/02 03:54:44;;;;;;;;;;;;;;;10.69;100.00;98685.16;1734277;81;22308;-71
2021/05/02 03:57:11;;;;;;;;;;;;;;;10.73;100.00;98692.14;1711672;82;20217;-72
2021/05/02 03:59:42;;;;;;;;;;;;;;;10.76;100.00;98688.91;1734172;82;20249;-72
2021/05/02 04:02:10;;;;;;;;;;;;;;;10.80;100.00;98691.28;1734144;82;20178;-72
2021/05/02 04:04:41;;;;;;;;;;;;;;;10.83;100.00;98688.06;1711667;82;20217;-72
2021/05/02 04:07:11;;;;;;;;;;;;;;;10.86;100.00;98695.56;1734172;82;22347;-72
2021/05/02 04:09:41;;;;;;;;;;;;;;;10.88;100.00;98693.41;1732893;82;20293;-72
2021/05/02 04:12:10;;;;;;;;;;;;;;;10.90;100.00;98701.16;1733755;82;20576;-72
2021/05/02 04:14:38;;;;;;;;;;;;;;;10.93;100.00;98704.11;1734921;81;20677;-72
2021/05/02 04:17:08;;;;;;;;;;;;;;;10.95;100.00;98701.16;1736185;81;20544;-71
2021/05/02 04:19:41;;;;;;;;;;;;;;;10.96;100.00;98696.59;1736234;82;21816;-72
2021/05/02 04:22:12;;;;;;;;;;;;;;;11.00;100.00;98698.97;1736074;82;20194;-72
2021/05/02 04:24:40;;;;;;;;;;;;;;;11.03;100.00;98692.52;1736120;81;20497;-72
2021/05/02 04:27:08;;;;;;;;;;;;;;;11.05;100.00;98693.56;1736093;82;20799;-72
2021/05/02 04:29:37;;;;;;;;;;;;;;;11.11;100.00;98693.81;1736190;82;20190;-72
2021/05/02 04:32:06;;;;;;;;;;;;;;;11.16;100.00;98693.78;1736181;82;21195;-71
2021/05/02 04:34:35;;;;;;;;;;;;;;;11.26;100.00;98693.70;1736062;82;20143;-71
2021/05/02 04:37:04;;;;;;;;;;;;;;;11.36;100.00;98684.23;1736220;82;20205;-72
2021/05/02 04:39:33;;;;;;;;;;;;;;;11.43;100.00;98689.29;1736212;82;20716;-72
2021/05/02 04:42:00;;;;;;;;;;;;;;;11.55;100.00;98684.36;1735634;82;20309;-72
2021/05/02 04:44:30;;;;;;;;;;;;;;;11.69;100.00;98688.55;1736261;82;21426;-73
2021/05/02 04:46:58;;;;;;;;;;;;;;;11.85;100.00;98689.21;1736449;82;20134;-72
2021/05/02 04:49:27;;;;;;;;;;;;;;;11.98;100.00;98697.21;1736484;82;20146;-72
2021/05/02 04:51:55;;;;;;;;;;;;;;;12.08;100.00;98693.59;1736259;82;20500;-72
2021/05/02 04:54:24;;;;;;;;;;;;;;;12.17;100.00;98699.41;1736448;82;20178;-70
2021/05/02 04:56:51;;;;;;;;;;;;;;;12.23;100.00;98698.29;1736362;82;21342;-70
2021/05/02 04:59:21;;;;;;;;;;;;;;;12.21;100.00;98699.66;1736409;81;20230;-70
2021/05/02 05:01:50;;;;;;;;;;;;;;;12.28;100.00;98696.64;1736415;82;20193;-72
2021/05/02 05:04:18;;;;;;;;;;;;;;;12.44;100.00;98692.67;1736485;82;20582;-70
2021/05/02 05:06:47;;;;;;;;;;;;;;;12.61;100.00;98686.83;1735573;81;20225;-70
2021/05/02 05:09:17;;;;;;;;;;;;;;;12.78;100.00;98683.66;1707113;83;22138;-71
2021/05/02 05:11:44;;;;;;;;;;;;;;;12.88;100.00;98671.39;1706953;83;20136;-70
2021/05/02 05:14:13;;;;;;;;;;;;;;;13.01;100.00;98670.69;1706899;83;20498;-70
2021/05/02 05:16:40;;;;;;;;;;;;;;;13.11;100.00;98663.01;1707155;84;20242;-70
2021/05/02 05:19:08;;;;;;;;;;;;;;;13.18;100.00;98666.14;1707125;84;20494;-70
2021/05/02 05:21:37;;;;;;;;;;;;;;;13.15;100.00;98665.91;1707187;84;20984;-71
2021/05/02 05:24:08;;;;;;;;;;;;;;;13.03;100.00;98665.81;1707021;84;20226;-71
2021/05/02 05:26:35;;;;;;;;;;;;;;;13.01;100.00;98668.00;1707085;83;20510;-71
2021/05/02 05:29:03;;;;;;;;;;;;;;;13.01;100.00;98658.57;1706822;84;20215;-71
2021/05/02 05:31:33;;;;;;;;;;;;;;;12.88;100.00;98663.31;1701779;82;20572;-71
2021/05/02 05:34:01;;;;;;;;;;;;;;;12.88;100.00;98660.63;1685224;85;21812;-72
2021/05/02 05:36:32;;;;;;;;;;;;;;;12.87;100.00;98661.17;1684247;84;20150;-72
2021/05/02 05:39:01;;;;;;;;;;;;;;;12.98;100.00;98669.11;1684869;85;20224;-71
2021/05/02 05:41:31;;;;;;;;;;;;;;;13.01;100.00;98670.69;1685090;85;20285;-71
2021/05/02 05:44:00;;;;;;;;;;;;;;;13.02;100.00;98658.02;1684970;85;20533;-71
2021/05/02 05:46:31;;;;;;;;;;;;;;;13.11;100.00;98650.89;1684919;85;21377;-71
2021/05/02 05:48:58;;;;;;;;;;;;;;;13.18;100.00;98650.49;1684843;85;20210;-70
2021/05/02 05:51:26;;;;;;;;;;;;;;;13.28;100.00;98651.74;1684996;85;20508;-71
2021/05/02 05:53:56;;;;;;;;;;;;;;;13.46;100.00;98654.94;1685011;85;20522;-71
2021/05/02 05:56:24;;;;;;;;;;;;;;;13.62;100.00;98647.41;1684915;85;20287;-70
2021/05/02 05:58:51;;;;;;;;;;;;;;;13.65;100.00;98649.52;1684702;85;21318;-71
2021/05/02 06:01:19;;;;;;;;;;;;;;;13.64;100.00;98643.05;1684867;85;20565;-71
2021/05/02 06:03:47;;;;;;;;;;;;;;;13.64;100.00;98640.36;1684744;85;20234;-72
2021/05/02 06:06:15;;;;;;;;;;;;;;;13.67;100.00;98635.19;1684524;85;21098;-72
2021/05/02 06:08:43;;;;;;;;;;;;;;;13.63;100.00;98634.17;1684613;85;20315;-72
2021/05/02 06:11:11;;;;;;;;;;;;;;;13.67;100.00;98630.32;1684927;85;21433;-72
2021/05/02 06:13:43;;;;;;;;;;;;;;;13.76;100.00;98631.80;1684753;85;20273;-71
2021/05/02 06:16:11;;;;;;;;;;;;;;;13.93;100.00;98631.47;1662756;84;20263;-71
2021/05/02 06:18:39;;;;;;;;;;;;;;;14.12;100.00;98635.44;1684853;85;20158;-71
2021/05/02 06:21:06;;;;;;;;;;;;;;;14.24;100.00;98637.64;1684866;85;20250;-71
2021/05/02 06:23:34;;;;;;;;;;;;;;;14.30;100.00;98641.83;1684806;85;21822;-70
2021/05/02 06:26:05;;;;;;;;;;;;;;;14.36;100.00;98642.55;1684801;85;20246;-71
2021/05/02 06:28:33;;;;;;;;;;;;;;;14.46;100.00;98646.94;1684743;85;20616;-71
2021/05/02 06:31:01;;;;;;;;;;;;;;;14.48;100.00;98637.44;1684976;85;20273;-71
2021/05/02 06:33:29;;;;;;;;;;;;;;;14.63;100.00;98638.26;1685141;85;20254;-70
2021/05/02 06:35:57;;;;;;;;;;;;;;;14.91;100.00;98634.38;1684872;85;21235;-70
2021/05/02 06:38:24;;;;;;;;;;;;;;;15.05;100.00;98638.95;1684494;85;20290;-70
2021/05/02 06:40:52;;;;;;;;;;;;;;;15.04;100.00;98635.98;1684779;85;20443;-71
2021/05/02 06:43:19;;;;;;;;;;;;;;;15.02;100.00;98633.61;1684934;85;20151;-71
2021/05/02 06:45:48;;;;;;;;;;;;;;;14.92;100.00;98625.71;1684985;85;20271;-71
2021/05/02 06:48:16;;;;;;;;;;;;;;;14.81;100.00;98626.50;1685013;85;21203;-71
2021/05/02 06:50:44;;;;;;;;;;;;;;;14.94;100.00;98627.03;1684945;85;20258;-71
2021/05/02 06:53:11;;;;;;;;;;;;;;;15.09;100.00;98626.41;1685172;85;20194;-72
2021/05/02 06:55:39;;;;;;;;;;;;;;;15.06;100.00;98632.44;1685000;85;20238;-71
2021/05/02 06:58:08;;;;;;;;;;;;;;;15.12;100.00;98632.02;1685066;85;20233;-72
2021/05/02 07:00:38;;;;;;;;;;;;;;;15.66;100.00;98634.77;1685059;85;21211;-71
2021/05/02 07:03:06;;;;;;;;;;;;;;;16.15;100.00;98631.61;1684904;85;20246;-72
2021/05/02 07:05:35;;;;;;;;;;;;;;;16.29;100.00;98637.72;1685082;85;20329;-73
2021/05/02 07:08:04;;;;;;;;;;;;;;;16.47;100.00;98637.20;1663341;85;20326;-72
2021/05/02 07:10:32;;;;;;;;;;;;;;;16.87;100.00;98636.34;1685110;85;20235;-71
2021/05/02 07:13:03;;;;;;;;;;;;;;;17.18;100.00;98632.14;1685127;85;21670;-72
2021/05/02 07:15:32;;;;;;;;;;;;;;;17.45;100.00;98642.41;1685023;84;20507;-72
2021/05/02 07:18:00;;;;;;;;;;;;;;;17.43;100.00;98636.50;1685300;85;20194;-72
2021/05/02 07:20:29;;;;;;;;;;;;;;;17.72;100.00;98646.11;1685301;85;20246;-72
2021/05/02 07:22:56;;;;;;;;;;;;;;;17.79;100.00;98651.05;1685064;85;20246;-72
2021/05/02 07:25:27;;;;;;;;;;;;;;;17.77;100.00;98654.64;1685011;85;21438;-74
2021/05/02 07:27:57;;;;;;;;;;;;;;;17.53;100.00;98653.23;1685159;85;20166;-73
2021/05/02 07:30:25;;;;;;;;;;;;;;;17.54;100.00;98651.31;1685111;85;20294;-74
2021/05/02 07:33:01;;;;;;;;;;;;;;;17.64;100.00;98649.64;1684924;84;20900;-73
2021/05/02 07:35:30;;;;;;;;;;;;;;;17.81;100.00;98643.41;1685136;85;20250;-73
2021/05/02 07:38:04;;;;;;;;;;;;;;;18.13;100.00;98643.38;1685139;85;21432;-73
2021/05/02 07:40:33;;;;;;;;;;;;;;;18.61;100.00;98644.87;1685041;85;20142;-72
2021/05/02 07:43:00;;;;;;;;;;;;;;;19.25;100.00;98648.45;1685060;85;20241;-73
2021/05/02 07:45:30;;;;;;;;;;;;;;;19.51;100.00;98643.36;1674639;85;20237;-72
2021/05/02 07:48:00;;;;;;;;;;;;;;;19.39;100.00;98639.45;1685037;85;20258;-71
2021/05/02 07:50:28;;;;;;;;;;;;;;;19.62;100.00;98643.15;1697358;83;22379;-72
2021/05/02 07:52:59;;;;;;;;;;;;;;;19.59;100.00;98647.91;1706426;83;20228;-73
2021/05/02 07:55:33;;;;;;;;;;;;;;;19.52;100.00;98639.49;1706475;83;20308;-72
2021/05/02 07:58:10;;;;;;;;;;;;;;;19.60;100.00;98648.12;1706331;83;20224;-72
2021/05/02 08:00:53;;;;;;;;;;;;;;;19.60;100.00;98637.23;1707143;84;20291;-73
2021/05/02 08:03:21;;;;;;;;;;;;;;;19.74;100.00;98637.77;1706847;83;22515;-72
2021/05/02 08:05:51;;;;;;;;;;;;;;;19.94;100.00;98632.59;1706774;84;20144;-73
2021/05/02 08:08:20;;;;;;;;;;;;;;;19.90;100.00;98630.55;1707036;84;20137;-75
2021/05/02 08:10:50;;;;;;;;;;;;;;;19.36;100.00;98627.88;1708485;82;20200;-76
2021/05/02 08:13:18;;;;;;;;;;;;;;;19.45;100.00;98624.52;1706892;84;20256;-75
2021/05/02 08:15:46;;;;;;;;;;;;;;;20.04;100.00;98619.34;1711794;83;21205;-73
2021/05/02 08:18:14;;;;;;;;;;;;;;;20.52;100.00;98620.45;1717625;83;20163;-73
2021/05/02 08:20:41;;;;;;;;;;;;;;;20.78;100.00;98609.78;1717238;83;20136;-76
2021/05/02 08:23:10;;;;;;;;;;;;;;;20.60;100.00;98609.80;1717315;83;20231;-73
2021/05/02 08:25:38;;;;;;;;;;;;;;;20.63;100.00;98607.20;1717445;83;20262;-72
2021/05/02 08:28:07;;;;;;;;;;;;;;;20.78;100.00;98599.45;1717204;83;21242;-75
2021/05/02 08:30:39;;;;;;;;;;;;;;;20.86;100.00;98595.78;1717242;83;20499;-75
2021/05/02 08:33:06;;;;;;;;;;;;;;;20.46;100.00;98600.03;1717361;83;20179;-74
2021/05/02 08:35:34;;;;;;;;;;;;;;;20.06;100.00;98604.00;1712263;83;20278;-73
2021/05/02 08:38:09;;;;;;;;;;;;;;;20.10;100.00;98600.84;1684807;84;20523;-75
2021/05/02 08:40:36;;;;;;;;;;;;;;;20.30;100.00;98592.31;1706990;82;21351;-71
2021/05/02 08:43:05;;;;;;;;;;;;;;;20.68;100.00;98582.42;1691328;84;20281;-73
2021/05/02 08:45:34;;;;;;;;;;;;;;;20.98;100.00;98581.53;1690797;84;20253;-72
2021/05/02 08:48:03;;;;;;;;;;;;;;;20.95;100.00;98582.23;1689307;85;20592;-74
2021/05/02 08:50:31;;;;;;;;;;;;;;;20.43;100.00;98578.11;1688787;85;20528;-70
2021/05/02 08:52:58;;;;;;;;;;;;;;;20.16;100.00;98566.77;1689951;85;21226;-73
2021/05/02 08:55:26;;;;;;;;;;;;;;;20.22;100.00;98568.14;1689586;85;20308;-71
2021/05/02 08:57:54;;;;;;;;;;;;;;;20.58;100.00;98559.73;1690054;83;20484;-73
2021/05/02 09:00:22;;;;;;;;;;;;;;;21.05;100.00;98557.76;1689926;85;20265;-74
2021/05/02 09:02:56;;;;;;;;;;;;;;;;;;1689869;85;20658;-74
2021/05/02 09:05:24;;;;;;;;;;;;;;;21.55;100.00;98548.77;1690253;85;21216;-71
2021/05/02 09:07:53;;;;;;;;;;;;;;;21.73;100.00;98550.58;1690170;85;20501;-73
2021/05/02 09:10:21;;;;;;;;;;;;;;;22.07;100.00;98549.06;1690371;84;20119;-71
2021/05/02 09:13:00;;;;;;;;;;;;;;;22.30;100.00;98550.61;1689879;83;20265;-72
2021/05/02 09:15:31;;;;;;;;;;;;;;;22.34;100.00;98546.02;1690375;84;20138;-71
2021/05/02 09:18:10;;;;;;;;;;;;;;;22.68;100.00;98543.61;1691659;83;21218;-71
2021/05/02 09:20:43;;;;;;;;;;;;;;;23.03;100.00;98540.05;1706126;83;20220;-71
2021/05/02 09:23:12;;;;;;;;;;;;;;;22.66;100.00;98533.05;1698237;84;20328;-74
2021/05/02 09:25:50;;;;;;;;;;;;;;;22.10;100.00;98527.88;1687274;83;20302;-73
2021/05/02 09:28:38;;;;;;;;;;;;;;;22.28;100.00;98517.37;1697275;84;20225;-74
2021/05/02 09:31:07;;;;;;;;;;;;;;;22.17;100.00;98519.03;1698520;83;21215;-75
2021/05/02 09:33:36;;;;;;;;;;;;;;;22.04;100.00;98510.94;1706720;82;20676;-71
2021/05/02 09:36:07;;;;;;;;;;;;;;;22.08;100.00;98508.89;1708941;83;20408;-74
2021/05/02 09:38:37;;;;;;;;;;;;;;;22.20;100.00;98510.95;1730936;82;20230;-72
2021/05/02 09:41:05;;;;;;;;;;;;;;;22.29;100.00;98506.64;1731263;83;20501;-72
2021/05/02 09:43:49;;;;;;;;;;;;;;;22.14;100.00;98503.35;1731051;82;21180;-73
2021/05/02 09:46:27;;;;;;;;;;;;;;;22.08;100.00;98500.69;1750010;81;20528;-72
2021/05/02 09:49:11;;;;;;;;;;;;;;;22.11;100.00;98499.97;1718619;83;20219;-72
2021/05/02 09:51:46;;;;;;;;;;;;;;;22.08;100.00;98493.86;1718552;82;20238;-74
2021/05/02 09:54:22;;;;;;;;;;;;;;;22.04;100.00;98498.65;1750189;82;20308;-72
2021/05/02 09:56:53;;;;;;;;;;;;;;;22.09;100.00;98490.75;1750063;82;21191;-75
2021/05/02 09:59:31;;;;;;;;;;;;;;;22.08;100.00;98490.55;1750126;82;20511;-75
2021/05/02 10:02:14;;;;;;;;;;;;;;;22.05;100.00;98496.73;1696668;83;20222;-73
2021/05/02 10:04:50;;;;;;;;;;;;;;;22.08;100.00;98503.42;1698442;84;20292;-73
2021/05/02 10:07:25;;;;;;;;;;;;;;;21.73;100.00;98499.50;1706821;83;20510;-74
2021/05/02 10:09:55;;;;;;;;;;;;;;;21.43;100.00;98492.89;1706765;84;21257;-73
2021/05/02 10:12:22;;;;;;;;;;;;;;;21.01;100.00;98506.97;1662060;84;20136;-72
2021/05/02 10:14:52;;;;;;;;;;;;;;;20.72;100.00;98505.59;1706673;83;20204;-75
2021/05/02 10:17:20;;;;;;;;;;;;;;;20.10;100.00;98506.29;1706701;82;20227;-74
2021/05/02 10:19:49;;;;;;;;;;;;;;;19.74;100.00;98512.53;1706565;84;20244;-73
2021/05/02 10:22:18;;;;;;;;;;;;;;;19.47;100.00;98515.31;1706517;84;21213;-73
2021/05/02 10:24:47;;;;;;;;;;;;;;;19.32;100.00;98509.17;1706491;83;20161;-75
2021/05/02 10:27:15;;;;;;;;;;;;;;;19.26;100.00;98518.12;1706623;84;20152;-74
2021/05/02 10:29:45;;;;;;;;;;;;;;;19.65;100.00;98510.48;1694903;83;20295;-73
2021/05/02 10:32:15;;;;;;;;;;;;;;;19.68;100.00;98504.38;1685285;84;20738;-74
2021/05/02 10:34:51;;;;;;;;;;;;;;;19.76;100.00;98498.02;1706598;83;21160;-74
2021/05/02 10:37:36;;;;;;;;;;;;;;;19.64;100.00;98490.61;1707756;83;20160;-76
2021/05/02 10:40:21;;;;;;;;;;;;;;;19.32;100.00;98489.56;1673196;85;20212;-74
2021/05/02 10:43:02;;;;;;;;;;;;;;;19.27;100.00;98491.14;1673171;84;20224;-74
2021/05/02 10:45:35;;;;;;;;;;;;;;;19.31;100.00;98488.55;1664754;83;20271;-73
2021/05/02 10:48:11;;;;;;;;;;;;;;;19.12;100.00;98493.15;1642833;85;21295;-75
2021/05/02 10:50:44;;;;;;;;;;;;;;;19.01;100.00;98501.73;1643120;85;20644;-73
2021/05/02 10:53:24;;;;;;;;;;;;;;;18.99;100.00;98514.08;1673559;85;20254;-74
2021/05/02 10:56:10;;;;;;;;;;;;;;;19.12;100.00;98510.83;1673494;84;20248;-74
2021/05/02 10:58:42;;;;;;;;;;;;;;;19.24;100.00;98512.22;1673428;85;20247;-74
2021/05/02 11:01:13;;;;;;;;;;;;;;;19.24;100.00;98498.63;1673050;84;21460;-75
2021/05/02 11:03:46;;;;;;;;;;;;;;;19.25;100.00;98489.31;1644060;85;20255;-74
2021/05/02 11:06:39;;;;;;;;;;;;;;;19.16;100.00;98484.56;1672643;84;20168;-72
2021/05/02 11:09:13;;;;;;;;;;;;;;;19.06;100.00;98493.94;1673366;84;20515;-73
2021/05/02 11:11:44;;;;;;;;;;;;;;;19.20;100.00;98479.44;1673546;85;20243;-73
2021/05/02 11:14:20;;;;;;;;;;;;;;;19.16;100.00;98488.64;1673371;85;21215;-75
2021/05/02 11:17:02;;;;;;;;;;;;;;;19.31;100.00;98481.18;1686823;84;20243;-76
2021/05/02 11:19:37;;;;;;;;;;;;;;;19.34;100.00;98488.66;1704508;82;20236;-75
2021/05/02 11:22:10;;;;;;;;;;;;;;;19.37;100.00;98494.78;1704184;83;20228;-75
2021/05/02 11:24:47;;;;;;;;;;;;;;;19.29;100.00;98484.80;1704061;84;20236;-75
2021/05/02 11:30:02;;;;;;;;;;;;;;;18.68;100.00;98465.55;1720684;83;20538;-75
2021/05/02 11:32:50;;;;;;;;;;;;;;;18.84;100.00;98485.59;1721114;82;20502;-75
2021/05/02 12:57:55;;;;;;;;;;;;;;;18.92;100.00;98342.54;1637170;87;20151;-69
2021/05/02 13:00:26;;;;;;;;;;;;;;;19.05;100.00;98327.23;1602644;88;20525;-68
2021/05/02 13:02:52;;;;;;;;;;;;;;;19.52;100.00;98330.04;1597936;88;20253;-67
2021/05/02 13:08:23;;;;;;;;;;;;;;;19.75;100.00;98326.30;1576169;91;20322;-69
2021/05/02 13:10:50;;;;;;;;;;;;;;;20.05;100.00;98313.72;1580971;91;22217;-68
2021/05/02 13:13:19;;;;;;;;;;;;;;;20.26;100.00;98323.85;1581184;89;20331;-69
2021/05/02 13:15:48;;;;;;;;;;;;;;;20.10;100.00;98310.74;1612291;86;20258;-69
2021/05/02 13:18:19;;;;;;;;;;;;;;;20.43;100.00;98309.13;1633371;86;20271;-69
2021/05/02 13:20:58;;;;;;;;;;;;;;;20.90;100.00;98312.47;1633516;86;20226;-69
2021/05/02 13:23:38;;;;;;;;;;;;;;;20.64;100.00;98304.02;1634098;86;21393;-69
2021/05/02 13:26:17;;;;;;;;;;;;;;;21.02;100.00;98305.33;1657663;86;20537;-70
2021/05/02 13:29:08;;;;;;;;;;;;;;;21.28;100.00;98306.14;1636965;87;20161;-69
2021/05/02 13:31:42;;;;;;;;;;;;;;;21.06;100.00;98297.45;1641554;86;20160;-71
2021/05/02 13:34:10;;;;;;;;;;;;;;;20.36;100.00;98291.22;1668787;85;20152;-68
2021/05/02 13:36:38;;;;;;;;;;;;;;;19.94;100.00;98286.74;1673917;85;22051;-67
2021/05/02 13:39:07;;;;;;;;;;;;;;;19.40;100.00;98275.09;1673845;85;20159;-68
2021/05/02 13:41:35;;;;;;;;;;;;;;;19.02;100.00;98285.77;1674011;85;20151;-69
2021/05/02 13:44:06;;;;;;;;;;;;;;;18.93;100.00;98279.65;1673675;85;21098;-70
2021/05/02 13:46:33;;;;;;;;;;;;;;;18.66;100.00;98275.64;1673737;85;20478;-69
2021/05/02 13:49:02;;;;;;;;;;;;;;;18.50;100.00;98265.23;1673656;85;22666;-69
2021/05/02 13:51:30;;;;;;;;;;;;;;;18.40;100.00;98261.02;1673970;85;20140;-70
2021/05/02 13:53:58;;;;;;;;;;;;;;;18.20;100.00;98268.89;1673964;85;20202;-69
2021/05/02 13:56:28;;;;;;;;;;;;;;;18.19;100.00;98274.08;1675859;85;20262;-69
2021/05/02 13:58:55;;;;;;;;;;;;;;;18.11;100.00;98268.18;1676004;85;20123;-70
2021/05/02 14:01:23;;;;;;;;;;;;;;;18.01;100.00;98261.81;1676122;85;20675;-73
2021/05/02 14:03:55;;;;;;;;;;;;;;;18.00;100.00;98273.78;1607729;88;20131;-71
2021/05/02 14:06:44;;;;;;;;;;;;;;;17.97;100.00;98271.17;1602745;88;20313;-72
2021/05/02 15:25:10;;;;;;;;;;;;;;;16.94;100.00;98205.73;1819174;79;20133;-70
2021/05/02 15:28:12;;;;;;;;;;;;;;;17.00;100.00;98208.50;1748462;82;22195;-70
2021/05/02 15:35:08;;;;;;;;;;;;;;;17.02;100.00;98192.67;1545221;91;20169;-69
2021/05/02 16:21:23;;;;;;;;;;;;;;;16.61;100.00;98145.95;1701212;83;20607;-69
2021/05/02 16:24:17;;;;;;;;;;;;;;;16.64;100.00;98148.03;1820509;77;20220;-70
2021/05/02 16:30:32;;;;;;;;;;;;;;;16.62;100.00;98151.06;1843113;77;20396;-68
2021/05/02 16:33:09;;;;;;;;;;;;;;;16.59;100.00;98149.02;1816479;78;20128;-68